Time;durP1;ratioP1;P1;durP2;ratioP2;P2;SDS_P1;SDS_P2;PMS_P1;PMS_P2;Temp;Humidity;BMP_temperature;BMP_pressure;BME280_temperature;BME280_humidity;BME280_pressure;Samples;Min_cycle;Max_cycle;Signal;HPM_P1;HPM_P2
2020/12/15 00:01:43;;;;;;;5.05;2.70;;;7.20;99.90;;;;;;5095370;28;20336;-79
2020/12/15 00:04:08;;;;;;;4.13;2.28;;;7.20;99.90;;;;;;5094578;28;20153;-80
2020/12/15 00:06:35;;;;;;;6.57;2.97;;;7.30;99.90;;;;;;5096271;28;20482;-79
2020/12/15 00:09:01;;;;;;;4.90;2.65;;;7.40;99.90;;;;;;5096389;28;20044;-79
2020/12/15 00:11:26;;;;;;;6.13;2.67;;;7.40;99.90;;;;;;5094671;28;20060;-80
2020/12/15 00:13:52;;;;;;;4.45;2.75;;;7.40;99.90;;;;;;5095996;28;20074;-79
2020/12/15 00:16:18;;;;;;;6.82;2.80;;;7.40;99.90;;;;;;5095373;28;20532;-79
2020/12/15 00:18:44;;;;;;;6.25;2.90;;;7.30;99.90;;;;;;5094059;28;20032;-80
2020/12/15 00:21:10;;;;;;;3.42;1.98;;;7.30;99.90;;;;;;5095882;28;20097;-79
2020/12/15 00:23:36;;;;;;;5.38;2.58;;;7.30;99.90;;;;;;5096327;28;20048;-79
2020/12/15 00:26:02;;;;;;;3.95;2.22;;;8.20;99.90;;;;;;5095527;28;20040;-79
2020/12/15 00:28:28;;;;;;;4.75;2.10;;;7.70;99.90;;;;;;5093416;28;20126;-79
2020/12/15 00:30:53;;;;;;;2.28;1.58;;;7.90;99.90;;;;;;5093442;28;20135;-79
2020/12/15 00:33:19;;;;;;;5.38;2.85;;;7.90;99.90;;;;;;5095019;28;20043;-79
2020/12/15 00:35:45;;;;;;;5.53;2.78;;;7.70;99.90;;;;;;5094963;28;20074;-79
2020/12/15 00:38:11;;;;;;;6.25;2.75;;;7.70;99.90;;;;;;5095279;28;20048;-80
2020/12/15 00:40:37;;;;;;;6.25;3.10;;;7.60;99.90;;;;;;5093937;28;20036;-79
2020/12/15 00:43:03;;;;;;;6.30;2.88;;;7.50;99.90;;;;;;5094286;28;20066;-80
2020/12/15 00:45:28;;;;;;;3.90;2.13;;;7.60;99.90;;;;;;5095565;28;20036;-79
2020/12/15 00:47:54;;;;;;;4.38;2.25;;;7.60;99.90;;;;;;5093680;28;20490;-79
2020/12/15 00:50:19;;;;;;;5.82;2.40;;;7.70;99.90;;;;;;5094615;28;20044;-80
2020/12/15 00:52:45;;;;;;;5.38;2.95;;;7.90;99.90;;;;;;5093964;28;20040;-79
2020/12/15 00:55:11;;;;;;;4.15;1.42;;;8.00;99.90;;;;;;5095454;28;20441;-79
2020/12/15 00:57:37;;;;;;;6.07;2.35;;;8.10;99.90;;;;;;5093930;28;20547;-79
2020/12/15 01:00:07;;;;;;;4.38;2.58;;;8.10;99.90;;;;;;5094872;28;20044;-79
2020/12/15 01:02:32;;;;;;;5.20;2.55;;;8.10;99.90;;;;;;5094983;28;20111;-80
2020/12/15 01:04:58;;;;;;;4.55;2.78;;;8.00;99.90;;;;;;5094483;28;20474;-79
2020/12/15 01:07:23;;;;;;;4.57;2.90;;;8.00;99.90;;;;;;5095451;28;20044;-80
2020/12/15 01:09:49;;;;;;;4.35;2.40;;;8.10;99.90;;;;;;5095074;28;20036;-80
2020/12/15 01:12:15;;;;;;;3.45;2.10;;;8.10;99.90;;;;;;5095484;28;20069;-80
2020/12/15 01:14:41;;;;;;;5.57;2.72;;;8.00;99.90;;;;;;5094031;28;20405;-79
2020/12/15 01:17:07;;;;;;;4.60;2.58;;;8.10;99.90;;;;;;5094710;28;20044;-80
2020/12/15 01:19:33;;;;;;;4.95;2.45;;;8.10;99.90;;;;;;5093172;28;20122;-79
2020/12/15 01:21:58;;;;;;;4.60;2.53;;;8.00;99.90;;;;;;5093949;28;20401;-80
2020/12/15 01:24:25;;;;;;;5.22;2.50;;;8.00;99.90;;;;;;5093881;28;20081;-80
2020/12/15 01:26:51;;;;;;;3.65;1.98;;;8.10;99.90;;;;;;5093678;28;20036;-79
2020/12/15 01:29:16;;;;;;;3.95;2.33;;;8.00;99.90;;;;;;5094382;28;20046;-80
2020/12/15 01:31:43;;;;;;;4.93;2.33;;;8.10;99.90;;;;;;5093492;28;20063;-79
2020/12/15 01:34:08;;;;;;;3.97;2.40;;;8.00;99.90;;;;;;5095058;28;20047;-79
2020/12/15 01:36:34;;;;;;;4.68;2.05;;;8.00;99.90;;;;;;5095254;28;20040;-79
2020/12/15 01:39:00;;;;;;;5.13;2.47;;;7.90;99.90;;;;;;5091849;28;20044;-79
2020/12/15 01:41:26;;;;;;;4.22;2.42;;;7.90;99.90;;;;;;5092902;28;20066;-80
2020/12/15 01:43:56;;;;;;;3.60;1.58;;;7.90;99.90;;;;;;5093562;28;20062;-79
2020/12/15 01:46:21;;;;;;;;;;;7.90;99.90;;;;;;5094510;28;20382;-79
2020/12/15 01:48:48;;;;;;;6.70;2.45;;;8.00;99.90;;;;;;5092615;28;19922;-80
2020/12/15 01:51:15;;;;;;;4.28;2.60;;;7.90;99.90;;;;;;5093458;28;20052;-80
2020/12/15 01:53:42;;;;;;;4.75;2.75;;;7.90;99.90;;;;;;5095235;28;20108;-80
2020/12/15 01:56:08;;;;;;;5.18;3.03;;;7.90;99.90;;;;;;5093785;28;20040;-79
2020/12/15 01:58:35;;;;;;;4.72;2.85;;;7.80;99.90;;;;;;5093360;28;20465;-82
2020/12/15 02:01:00;;;;;;;4.05;2.40;;;7.80;99.90;;;;;;5093613;28;20040;-80
2020/12/15 02:03:26;;;;;;;5.78;2.45;;;7.80;99.90;;;;;;5093437;28;20446;-79
2020/12/15 02:05:52;;;;;;;6.45;2.70;;;7.80;99.90;;;;;;5093374;28;20040;-80
2020/12/15 02:08:18;;;;;;;4.47;2.40;;;7.80;99.90;;;;;;5095294;28;20570;-79
2020/12/15 02:10:44;;;;;;;4.82;2.75;;;7.90;99.90;;;;;;5094025;28;20060;-80
2020/12/15 02:13:09;;;;;;;3.50;2.30;;;7.90;99.90;;;;;;5094987;28;20547;-81
2020/12/15 02:15:35;;;;;;;5.15;2.45;;;7.90;99.90;;;;;;5088671;28;20093;-80
2020/12/15 02:18:00;;;;;;;3.92;2.25;;;7.90;99.90;;;;;;5089079;28;20044;-79
2020/12/15 02:20:26;;;;;;;5.32;2.30;;;8.00;99.90;;;;;;5090476;28;20042;-80
2020/12/15 02:22:52;;;;;;;4.13;2.38;;;8.20;99.90;;;;;;5089839;28;20430;-80
2020/12/15 02:25:18;;;;;;;4.00;2.40;;;8.30;99.90;;;;;;5091259;28;20486;-80
2020/12/15 02:27:43;;;;;;;4.05;2.50;;;8.20;99.90;;;;;;5090976;28;20055;-80
2020/12/15 02:30:09;;;;;;;3.83;2.35;;;8.20;99.90;;;;;;5089311;28;20032;-79
2020/12/15 02:32:35;;;;;;;3.70;2.33;;;8.20;99.90;;;;;;5091509;28;20085;-79
2020/12/15 02:35:01;;;;;;;3.75;2.20;;;8.30;99.90;;;;;;5091004;28;20055;-79
2020/12/15 02:37:27;;;;;;;4.30;2.40;;;8.30;99.90;;;;;;5090206;28;20377;-80
2020/12/15 02:39:58;;;;;;;4.05;2.22;;;8.30;99.90;;;;;;5088973;28;20040;-80
2020/12/15 02:42:23;;;;;;;3.45;1.85;;;8.20;99.90;;;;;;5089160;28;20405;-80
2020/12/15 02:44:49;;;;;;;4.20;2.50;;;8.30;99.90;;;;;;5091427;28;20036;-80
2020/12/15 02:47:15;;;;;;;3.40;2.05;;;8.20;99.90;;;;;;5094156;28;20040;-79
2020/12/15 02:49:40;;;;;;;4.35;2.67;;;8.20;99.90;;;;;;5092372;28;20081;-79
2020/12/15 02:52:06;;;;;;;3.28;1.58;;;8.20;99.90;;;;;;5096947;28;20532;-79
2020/12/15 02:54:31;;;;;;;3.80;2.25;;;8.20;99.90;;;;;;5096002;28;20040;-79
2020/12/15 02:56:58;;;;;;;4.32;2.50;;;8.20;99.90;;;;;;5097057;28;20040;-79
2020/12/15 02:59:23;;;;;;;4.55;2.75;;;8.10;99.90;;;;;;5094841;28;20044;-79
2020/12/15 03:01:51;;;;;;;4.47;2.63;;;8.10;99.90;;;;;;5096987;28;20043;-79
2020/12/15 03:04:17;;;;;;;5.45;2.22;;;8.20;99.90;;;;;;5096503;28;20074;-79
2020/12/15 03:06:43;;;;;;;3.30;1.65;;;8.10;99.90;;;;;;5097276;28;20036;-79
2020/12/15 03:09:09;;;;;;;5.45;3.15;;;8.10;99.90;;;;;;5095580;28;20042;-79
2020/12/15 03:11:35;;;;;;;5.45;2.67;;;8.10;99.90;;;;;;5097118;28;20071;-79
2020/12/15 03:14:02;;;;;;;5.45;3.15;;;8.10;99.90;;;;;;5097941;28;20048;-80
2020/12/15 03:16:28;;;;;;;5.85;3.25;;;8.10;99.90;;;;;;5095094;28;20071;-79
2020/12/15 03:18:54;;;;;;;4.25;2.63;;;8.10;99.90;;;;;;5094518;28;20071;-79
2020/12/15 03:21:20;;;;;;;5.15;2.83;;;8.20;99.90;;;;;;5096468;28;20039;-79
2020/12/15 03:23:46;;;;;;;3.63;2.03;;;8.20;99.90;;;;;;5097026;28;20119;-79
2020/12/15 03:26:12;;;;;;;4.03;2.45;;;8.10;99.90;;;;;;5095422;28;20143;-79
2020/12/15 03:28:37;;;;;;;5.07;2.95;;;8.20;99.90;;;;;;5095562;28;20032;-81
2020/12/15 03:31:04;;;;;;;5.03;2.58;;;8.10;99.90;;;;;;5097443;28;20070;-79
2020/12/15 03:33:29;;;;;;;5.05;3.10;;;8.10;99.90;;;;;;5097810;28;20493;-80
2020/12/15 03:35:55;;;;;;;4.25;2.58;;;8.00;99.90;;;;;;5096658;28;20048;-80
2020/12/15 03:38:21;;;;;;;7.30;2.95;;;8.00;99.90;;;;;;5096523;28;20355;-79
2020/12/15 03:40:47;;;;;;;4.18;1.60;;;8.00;99.90;;;;;;5096620;28;20042;-79
2020/12/15 03:43:12;;;;;;;5.35;3.00;;;8.00;99.90;;;;;;5096881;28;20040;-79
2020/12/15 03:45:42;;;;;;;4.07;2.40;;;8.00;99.90;;;;;;5098438;28;20044;-79
2020/12/15 03:48:08;;;;;;;4.55;2.88;;;8.00;99.90;;;;;;5097563;28;20087;-80
2020/12/15 03:50:34;;;;;;;6.50;3.38;;;8.00;99.90;;;;;;5094985;28;20056;-79
2020/12/15 03:53:00;;;;;;;4.22;2.08;;;7.90;99.90;;;;;;5097008;28;20032;-79
2020/12/15 03:55:25;;;;;;;2.70;1.77;;;7.90;99.90;;;;;;5094483;28;20040;-79
2020/12/15 03:57:51;;;;;;;6.78;3.65;;;7.90;99.90;;;;;;5094573;28;20127;-79
2020/12/15 04:00:17;;;;;;;5.53;3.05;;;7.90;99.90;;;;;;5093603;28;20474;-79
2020/12/15 04:02:43;;;;;;;6.47;2.88;;;7.90;99.90;;;;;;5094365;28;20520;-79
2020/12/15 04:05:10;;;;;;;5.70;3.50;;;7.90;99.90;;;;;;5094406;28;20036;-79
2020/12/15 04:07:35;;;;;;;4.13;2.15;;;7.90;99.90;;;;;;5094334;28;20076;-79
2020/12/15 04:10:01;;;;;;;6.53;3.50;;;7.90;99.90;;;;;;5093500;28;20067;-79
2020/12/15 04:12:27;;;;;;;6.13;3.35;;;8.00;99.90;;;;;;5095964;28;20535;-80
2020/12/15 04:14:53;;;;;;;7.10;3.72;;;7.90;99.90;;;;;;5100960;28;20044;-82
2020/12/15 04:17:18;;;;;;;5.95;3.55;;;8.00;99.90;;;;;;5101138;28;20535;-81
2020/12/15 04:19:44;;;;;;;7.38;3.70;;;8.00;99.90;;;;;;5101133;28;20059;-81
2020/12/15 04:22:10;;;;;;;6.18;3.83;;;8.00;99.90;;;;;;5102208;28;20481;-81
2020/12/15 04:24:36;;;;;;;9.10;3.95;;;7.90;99.90;;;;;;5099747;28;20047;-81
2020/12/15 04:27:01;;;;;;;5.43;3.17;;;7.90;99.90;;;;;;5098979;28;20103;-80
2020/12/15 04:29:27;;;;;;;5.78;3.40;;;7.90;99.90;;;;;;5099025;28;20036;-81
2020/12/15 04:31:55;;;;;;;5.65;3.45;;;7.90;99.90;;;;;;5098899;28;20401;-81
2020/12/15 04:34:20;;;;;;;7.53;3.50;;;8.00;99.90;;;;;;5099707;28;20040;-81
2020/12/15 04:36:46;;;;;;;5.72;3.58;;;8.00;99.90;;;;;;5099410;28;20081;-81
2020/12/15 04:39:12;;;;;;;5.60;3.30;;;8.10;99.90;;;;;;5098769;28;20119;-81
2020/12/15 04:41:38;;;;;;;6.32;3.78;;;8.10;99.90;;;;;;5098425;28;20090;-81
2020/12/15 04:44:05;;;;;;;6.15;3.45;;;8.10;99.90;;;;;;5098612;28;20036;-81
2020/12/15 04:46:35;;;;;;;5.63;3.45;;;8.10;99.90;;;;;;5099691;28;20032;-82
2020/12/15 04:49:04;;;;;;;6.93;3.90;;;8.00;99.90;;;;;;5097805;28;20109;-80
2020/12/15 04:51:34;;;;;;;8.45;3.75;;;8.10;99.90;;;;;;5097961;28;20505;-81
2020/12/15 04:54:02;;;;;;;5.90;3.10;;;8.10;99.90;;;;;;5099369;28;20048;-81
2020/12/15 04:56:30;;;;;;;8.18;3.70;;;8.10;99.90;;;;;;5097737;28;20047;-80
2020/12/15 04:59:00;;;;;;;8.23;4.22;;;8.10;99.90;;;;;;5097512;28;20040;-81
2020/12/15 05:01:26;;;;;;;6.18;3.88;;;8.10;99.90;;;;;;5098832;28;20111;-81
2020/12/15 05:03:53;;;;;;;6.35;3.38;;;8.10;99.90;;;;;;5098033;28;20457;-81
2020/12/15 05:06:25;;;;;;;7.43;4.13;;;8.10;99.90;;;;;;5099216;28;20039;-81
2020/12/15 05:08:50;;;;;;;6.53;3.50;;;8.10;99.90;;;;;;5100046;28;20097;-81
2020/12/15 05:11:16;;;;;;;6.63;4.07;;;8.00;99.90;;;;;;5099974;28;20044;-81
2020/12/15 05:13:42;;;;;;;6.93;3.75;;;8.10;99.90;;;;;;5098338;28;20047;-80
2020/12/15 05:16:08;;;;;;;6.82;4.13;;;8.00;99.90;;;;;;5097621;28;20493;-80
2020/12/15 05:18:34;;;;;;;7.22;3.85;;;8.00;99.90;;;;;;5098489;28;20476;-81
2020/12/15 05:21:11;;;;;;;7.85;4.55;;;8.00;99.90;;;;;;5098963;28;20078;-81
2020/12/15 05:23:44;;;;;;;6.95;4.28;;;8.10;99.90;;;;;;5098095;28;20058;-81
2020/12/15 05:26:09;;;;;;;7.22;3.88;;;8.20;99.90;;;;;;5099178;28;20032;-81
2020/12/15 05:28:35;;;;;;;7.13;4.25;;;8.20;99.90;;;;;;5098197;28;20031;-81
2020/12/15 05:31:02;;;;;;;7.15;4.30;;;8.10;99.90;;;;;;5098794;28;20092;-81
2020/12/15 05:33:27;;;;;;;7.03;4.45;;;8.10;99.90;;;;;;5103591;28;20090;-79
2020/12/15 05:35:53;;;;;;;6.80;4.10;;;8.10;99.90;;;;;;5096001;28;20044;-80
2020/12/15 05:38:18;;;;;;;8.85;5.10;;;8.10;99.90;;;;;;5097437;28;20040;-81
2020/12/15 05:40:44;;;;;;;10.30;4.47;;;8.10;99.90;;;;;;5096927;28;20547;-80
2020/12/15 05:43:12;;;;;;;7.78;4.82;;;8.20;99.90;;;;;;5096737;28;20047;-80
2020/12/15 05:45:38;;;;;;;7.95;5.22;;;8.10;99.90;;;;;;5097549;28;20071;-80
2020/12/15 05:48:05;;;;;;;7.95;4.68;;;8.00;99.90;;;;;;5095806;28;20031;-80
2020/12/15 05:50:32;;;;;;;13.57;5.90;;;7.90;99.90;;;;;;5093385;28;20052;-79
2020/12/15 05:52:59;;;;;;;9.32;4.95;;;7.80;99.90;;;;;;5095525;28;20088;-80
2020/12/15 05:55:25;;;;;;;10.52;6.57;;;7.90;99.90;;;;;;5093673;28;20040;-80
2020/12/15 05:57:51;;;;;;;9.85;5.90;;;7.80;99.90;;;;;;5092860;28;20490;-80
2020/12/15 06:00:17;;;;;;;13.80;6.38;;;7.80;99.90;;;;;;5095757;28;20065;-80
2020/12/15 06:02:43;;;;;;;9.85;6.28;;;7.60;99.90;;;;;;5095846;28;20048;-80
2020/12/15 06:05:10;;;;;;;11.20;6.80;;;7.70;99.90;;;;;;5096985;28;20055;-81
2020/12/15 06:07:36;;;;;;;10.05;5.85;;;7.70;99.90;;;;;;5098432;28;20096;-80
2020/12/15 06:10:04;;;;;;;10.20;5.90;;;7.80;99.90;;;;;;5097016;28;20524;-81
2020/12/15 06:12:30;;;;;;;14.18;6.80;;;7.80;99.90;;;;;;5097277;28;20044;-82
2020/12/15 06:14:55;;;;;;;12.85;6.22;;;7.70;99.90;;;;;;5098763;28;20042;-82
2020/12/15 06:17:22;;;;;;;11.60;6.68;;;7.70;99.90;;;;;;5094947;28;20043;-81
2020/12/15 06:19:52;;;;;;;13.10;6.90;;;7.70;99.90;;;;;;5095201;28;20550;-80
2020/12/15 06:22:21;;;;;;;15.40;7.53;;;7.50;99.90;;;;;;5095768;28;20106;-80
2020/12/15 06:24:55;;;;;;;15.10;7.68;;;7.40;99.90;;;;;;5094040;28;20043;-80
2020/12/15 06:27:29;;;;;;;10.38;5.90;;;7.40;99.90;;;;;;5097303;28;20062;-80
2020/12/15 06:29:55;;;;;;;14.93;7.32;;;7.40;99.90;;;;;;5098009;28;20458;-80
2020/12/15 06:32:20;;;;;;;13.48;7.68;;;7.40;99.90;;;;;;5098497;28;20075;-81
2020/12/15 06:34:47;;;;;;;14.80;8.48;;;7.40;99.90;;;;;;5098575;28;20040;-80
2020/12/15 06:37:15;;;;;;;15.23;8.10;;;7.40;99.90;;;;;;5097845;28;20163;-80
2020/12/15 06:39:52;;;;;;;12.82;8.05;;;7.30;99.90;;;;;;5096184;28;20448;-80
2020/12/15 06:42:18;;;;;;;15.13;7.70;;;7.30;99.90;;;;;;5095967;28;20079;-80
2020/12/15 06:44:43;;;;;;;14.57;8.35;;;7.30;99.90;;;;;;5097319;28;20047;-80
2020/12/15 06:47:09;;;;;;;15.70;8.52;;;7.30;99.90;;;;;;5097253;28;20036;-80
2020/12/15 06:49:36;;;;;;;15.77;8.52;;;7.20;99.90;;;;;;5096670;28;20520;-81
2020/12/15 06:52:04;;;;;;;13.57;8.32;;;7.30;99.90;;;;;;5099855;28;20551;-80
2020/12/15 06:54:31;;;;;;;21.00;8.43;;;7.30;99.90;;;;;;5099121;28;20032;-80
2020/12/15 06:57:04;;;;;;;15.50;8.57;;;7.20;99.90;;;;;;5099195;28;20044;-81
2020/12/15 06:59:31;;;;;;;13.43;7.57;;;7.20;99.90;;;;;;5098515;28;20040;-81
2020/12/15 07:02:11;;;;;;;14.60;7.22;;;7.20;99.90;;;;;;5096641;28;20127;-80
2020/12/15 07:04:43;;;;;;;;;;;7.30;99.90;;;;;;5096985;28;20040;-79
2020/12/15 07:07:09;;;;;;;14.10;8.25;;;7.20;99.90;;;;;;5095431;28;20281;-80
2020/12/15 07:09:35;;;;;;;18.10;10.90;;;7.20;99.90;;;;;;5096025;28;20116;-80
2020/12/15 07:12:03;;;;;;;20.52;9.57;;;7.20;99.90;;;;;;5095374;28;20497;-80
2020/12/15 07:14:29;;;;;;;19.35;9.30;;;7.10;99.90;;;;;;5095089;28;20040;-80
2020/12/15 07:16:55;;;;;;;17.80;11.05;;;7.10;99.90;;;;;;5095995;28;20032;-80
2020/12/15 07:19:22;;;;;;;16.75;9.98;;;7.10;99.90;;;;;;5093465;28;20044;-80
2020/12/15 07:21:48;;;;;;;17.35;9.80;;;7.10;99.90;;;;;;5095197;28;20055;-80
2020/12/15 07:24:13;;;;;;;16.75;9.52;;;7.10;99.90;;;;;;5095247;28;20040;-79
2020/12/15 07:26:40;;;;;;;19.25;10.38;;;7.20;99.90;;;;;;5094545;28;20470;-80
2020/12/15 07:29:07;;;;;;;18.67;10.05;;;7.20;99.90;;;;;;5095707;28;20422;-80
2020/12/15 07:31:33;;;;;;;23.17;12.48;;;7.20;99.90;;;;;;5093658;28;20162;-80
2020/12/15 07:34:07;;;;;;;19.23;9.57;;;7.20;99.90;;;;;;5094557;28;20052;-79
2020/12/15 07:36:35;;;;;;;12.82;7.80;;;7.20;99.90;;;;;;5093346;28;20416;-79
2020/12/15 07:39:01;;;;;;;16.73;9.73;;;7.20;99.90;;;;;;5094421;28;20063;-79
2020/12/15 07:41:26;;;;;;;18.40;9.60;;;7.20;99.90;;;;;;5094862;28;20089;-80
2020/12/15 07:43:53;;;;;;;16.45;9.13;;;7.10;99.90;;;;;;5095000;28;20111;-80
2020/12/15 07:46:23;;;;;;;18.08;10.18;;;7.10;99.90;;;;;;5094731;28;20513;-79
2020/12/15 07:48:50;;;;;;;18.90;10.52;;;7.20;99.90;;;;;;5094283;28;20032;-79
2020/12/15 07:51:15;;;;;;;16.05;9.05;;;7.20;99.90;;;;;;5093693;28;20055;-80
2020/12/15 07:53:49;;;;;;;17.02;8.65;;;7.20;99.90;;;;;;5092588;28;20520;-80
2020/12/15 07:56:15;;;;;;;24.50;11.73;;;7.20;99.90;;;;;;5096213;28;20036;-81
2020/12/15 07:58:41;;;;;;;18.58;10.48;;;7.20;99.90;;;;;;5095539;28;20069;-80
2020/12/15 08:01:08;;;;;;;19.70;10.55;;;7.20;99.90;;;;;;5093905;28;20039;-80
2020/12/15 08:03:34;;;;;;;20.23;11.63;;;7.10;99.90;;;;;;5094005;28;20044;-80
2020/12/15 08:06:06;;;;;;;16.95;9.30;;;7.20;99.90;;;;;;5093519;28;20048;-81
2020/12/15 08:08:34;;;;;;;16.80;9.07;;;7.30;99.90;;;;;;5074600;28;20040;-80
2020/12/15 08:10:59;;;;;;;17.90;9.70;;;7.30;99.90;;;;;;5072722;28;20040;-79
2020/12/15 08:13:25;;;;;;;16.63;9.52;;;7.40;99.90;;;;;;5072737;28;20059;-80
2020/12/15 08:15:51;;;;;;;16.15;9.48;;;7.40;99.90;;;;;;5072519;28;20121;-79
2020/12/15 08:18:17;;;;;;;19.42;10.75;;;7.50;99.90;;;;;;5074733;28;527579;-80
2020/12/15 08:20:46;;;;;;;16.70;10.05;;;7.50;99.90;;;;;;5093777;28;20047;-80
2020/12/15 08:23:13;;;;;;;17.23;10.43;;;7.50;99.90;;;;;;5094016;28;20044;-80
2020/12/15 08:25:43;;;;;;;14.35;8.65;;;7.50;99.90;;;;;;5095776;28;20135;-82
2020/12/15 08:28:11;;;;;;;26.63;14.07;;;7.60;99.90;;;;;;5100333;28;20448;-82
2020/12/15 08:30:36;;;;;;;16.42;9.80;;;7.60;99.90;;;;;;5093344;28;20398;-80
2020/12/15 08:33:02;;;;;;;24.38;12.98;;;7.60;99.90;;;;;;5094844;28;20032;-80
2020/12/15 08:35:28;;;;;;;19.63;11.77;;;7.70;99.90;;;;;;5094653;28;20535;-80
2020/12/15 08:37:56;;;;;;;17.83;10.95;;;7.60;99.90;;;;;;5095669;28;20044;-82
2020/12/15 08:40:23;;;;;;;14.18;7.47;;;7.70;99.90;;;;;;5097748;28;20452;-80
2020/12/15 08:42:52;;;;;;;16.13;9.52;;;7.70;99.90;;;;;;5097273;28;20036;-80
2020/12/15 08:45:18;;;;;;;16.90;9.82;;;7.80;99.90;;;;;;5098697;28;20036;-81
2020/12/15 08:47:46;;;;;;;14.82;10.10;;;7.90;99.90;;;;;;5098978;28;20123;-81
2020/12/15 08:50:13;;;;;;;16.65;9.52;;;7.90;99.90;;;;;;5098845;28;20428;-81
2020/12/15 08:52:39;;;;;;;16.80;9.02;;;7.90;99.90;;;;;;5099157;28;20058;-79
2020/12/15 08:55:05;;;;;;;15.32;8.70;;;8.00;99.90;;;;;;5096668;28;20100;-80
2020/12/15 08:57:31;;;;;;;16.17;10.30;;;8.10;99.90;;;;;;5096538;28;20120;-80
2020/12/15 09:00:07;;;;;;;16.33;8.88;;;8.10;99.90;;;;;;5095678;28;20421;-80
2020/12/15 09:02:32;;;;;;;15.93;9.57;;;8.10;99.90;;;;;;5095859;28;20069;-80
2020/12/15 09:05:04;;;;;;;15.23;9.25;;;8.10;99.90;;;;;;5098051;28;20036;-80
2020/12/15 09:07:30;;;;;;;14.65;8.55;;;8.20;99.90;;;;;;5098458;28;20051;-80
2020/12/15 09:09:56;;;;;;;14.63;9.07;;;8.20;99.90;;;;;;5096810;28;20032;-81
2020/12/15 09:12:22;;;;;;;15.80;8.07;;;8.30;99.90;;;;;;5096525;28;20043;-80
2020/12/15 09:14:58;;;;;;;15.55;8.93;;;8.30;99.90;;;;;;5094683;28;20044;-80
2020/12/15 09:17:24;;;;;;;14.52;8.70;;;8.30;99.90;;;;;;5094986;28;20028;-80
2020/12/15 09:19:50;;;;;;;16.63;9.70;;;8.30;99.90;;;;;;5094670;28;20477;-80
2020/12/15 09:22:16;;;;;;;15.18;8.77;;;8.30;99.90;;;;;;5095090;28;20032;-80
2020/12/15 09:24:43;;;;;;;14.68;8.30;;;8.40;99.90;;;;;;5094198;28;20477;-80
2020/12/15 09:27:17;;;;;;;14.43;8.00;;;8.40;99.90;;;;;;5094334;28;20043;-80
2020/12/15 09:29:43;;;;;;;13.48;8.55;;;8.40;99.90;;;;;;5095412;28;20036;-80
2020/12/15 09:32:09;;;;;;;16.90;8.77;;;8.50;99.90;;;;;;5095768;28;20075;-80
2020/12/15 09:34:35;;;;;;;12.32;7.18;;;8.40;99.90;;;;;;5094965;28;20047;-80
2020/12/15 09:37:00;;;;;;;12.10;7.25;;;8.40;99.90;;;;;;5095066;28;20119;-80
2020/12/15 09:39:27;;;;;;;12.88;7.30;;;8.50;99.90;;;;;;5094704;28;20065;-79
2020/12/15 09:41:55;;;;;;;13.50;7.88;;;8.50;99.90;;;;;;5093573;28;20039;-80
2020/12/15 09:44:21;;;;;;;11.82;7.13;;;8.60;99.90;;;;;;5095038;28;20044;-80
2020/12/15 09:46:47;;;;;;;12.10;7.13;;;8.50;99.90;;;;;;5093098;28;20036;-80
2020/12/15 09:49:13;;;;;;;12.02;6.55;;;8.50;99.90;;;;;;5092950;28;20075;-80
2020/12/15 09:51:41;;;;;;;11.05;6.40;;;8.50;99.90;;;;;;5095577;28;20521;-80
2020/12/15 09:54:06;;;;;;;11.82;7.13;;;8.50;99.90;;;;;;5094757;28;20047;-79
2020/12/15 09:56:32;;;;;;;11.90;6.75;;;8.50;99.90;;;;;;5093344;28;20044;-80
2020/12/15 09:58:58;;;;;;;11.13;6.68;;;8.50;99.90;;;;;;5093317;28;20036;-80
2020/12/15 10:01:24;;;;;;;10.88;6.97;;;8.50;99.90;;;;;;5094183;28;20459;-80
2020/12/15 10:03:50;;;;;;;12.68;7.30;;;8.50;99.90;;;;;;5095674;28;20040;-80
2020/12/15 10:06:16;;;;;;;10.77;6.97;;;8.60;99.90;;;;;;5093440;28;20048;-80
2020/12/15 10:08:42;;;;;;;14.77;9.95;;;8.60;99.90;;;;;;5092970;28;20042;-80
2020/12/15 10:11:13;;;;;;;12.52;6.47;;;8.60;99.90;;;;;;5093496;28;20036;-80
2020/12/15 10:13:39;;;;;;;10.05;6.45;;;8.60;99.90;;;;;;5093416;28;20040;-80
2020/12/15 10:16:04;;;;;;;12.00;6.78;;;8.60;99.90;;;;;;5092686;28;20093;-80
2020/12/15 10:18:30;;;;;;;9.93;6.25;;;8.50;99.90;;;;;;5095660;28;20032;-80
2020/12/15 10:20:56;;;;;;;11.30;6.35;;;8.60;99.90;;;;;;5094273;28;20422;-80
2020/12/15 10:23:22;;;;;;;9.63;5.47;;;8.60;99.90;;;;;;5096657;28;20050;-80
2020/12/15 10:25:47;;;;;;;11.25;6.28;;;8.50;99.90;;;;;;5095928;28;20119;-81
2020/12/15 10:28:13;;;;;;;11.18;6.10;;;8.50;99.90;;;;;;5095058;28;20101;-80
2020/12/15 10:30:39;;;;;;;12.15;7.13;;;8.50;99.90;;;;;;5096668;28;20047;-80
2020/12/15 10:33:07;;;;;;;10.60;6.25;;;8.40;99.90;;;;;;5096057;28;20115;-80
2020/12/15 10:35:32;;;;;;;9.82;6.22;;;8.40;99.90;;;;;;5095074;28;20040;-80
2020/12/15 10:37:59;;;;;;;11.43;7.20;;;8.40;99.90;;;;;;5096014;28;20036;-80
2020/12/15 10:40:24;;;;;;;12.32;7.45;;;8.40;99.90;;;;;;5096682;28;20485;-79
2020/12/15 10:42:50;;;;;;;12.82;6.95;;;8.30;99.90;;;;;;5095501;28;20095;-80
2020/12/15 10:45:17;;;;;;;11.77;6.85;;;8.30;99.90;;;;;;5095560;28;20043;-80
2020/12/15 10:47:43;;;;;;;11.60;6.68;;;8.30;99.90;;;;;;5096226;28;20028;-81
2020/12/15 10:50:10;;;;;;;12.35;7.32;;;8.30;99.90;;;;;;5096963;28;20037;-79
2020/12/15 10:52:36;;;;;;;11.70;7.45;;;8.20;99.90;;;;;;5096782;28;20036;-80
2020/12/15 10:55:03;;;;;;;15.70;7.90;;;8.20;99.90;;;;;;5095431;28;20043;-80
2020/12/15 10:57:28;;;;;;;13.68;7.70;;;8.20;99.90;;;;;;5096081;28;20448;-80
2020/12/15 10:59:54;;;;;;;11.45;7.70;;;8.20;99.90;;;;;;5095624;28;20044;-81
2020/12/15 11:02:20;;;;;;;15.98;8.50;;;8.10;99.90;;;;;;5097025;28;20097;-80
2020/12/15 11:04:45;;;;;;;15.27;9.32;;;8.10;99.90;;;;;;5090232;28;20480;-80
2020/12/15 11:07:11;;;;;;;14.73;8.40;;;8.10;99.90;;;;;;5091651;28;20036;-79
2020/12/15 11:09:36;;;;;;;15.60;9.00;;;8.10;99.90;;;;;;5091322;28;20075;-81
2020/12/15 11:12:03;;;;;;;16.30;8.30;;;8.00;99.90;;;;;;5093798;28;20074;-80
2020/12/15 11:14:30;;;;;;;16.52;8.93;;;8.00;99.90;;;;;;5096250;28;20051;-80
2020/12/15 11:16:57;;;;;;;17.85;8.65;;;8.10;99.90;;;;;;5096081;28;20042;-81
2020/12/15 11:19:23;;;;;;;17.73;9.93;;;8.00;99.90;;;;;;5097296;28;20119;-82
2020/12/15 11:21:50;;;;;;;17.15;9.77;;;7.90;99.90;;;;;;5097276;28;20494;-80
2020/12/15 11:24:16;;;;;;;15.55;9.35;;;7.80;99.90;;;;;;5098135;28;20040;-81
2020/12/15 11:26:41;;;;;;;18.05;10.73;;;7.80;99.90;;;;;;5099361;28;20047;-81
2020/12/15 11:29:08;;;;;;;21.05;11.13;;;7.90;99.90;;;;;;5097974;28;20048;-81
2020/12/15 11:31:33;;;;;;;18.17;10.55;;;7.90;99.90;;;;;;5099419;28;20075;-81
2020/12/15 11:33:59;;;;;;;20.48;11.02;;;8.00;99.90;;;;;;5099356;28;20056;-81
2020/12/15 11:36:27;;;;;;;16.52;10.23;;;7.90;99.90;;;;;;5097515;28;20035;-80
2020/12/15 11:38:53;;;;;;;23.25;10.85;;;7.90;99.90;;;;;;5097490;28;20048;-82
2020/12/15 11:41:19;;;;;;;18.88;10.75;;;7.90;99.90;;;;;;5098473;28;20069;-81
2020/12/15 11:43:44;;;;;;;15.75;9.63;;;8.00;99.90;;;;;;5099684;28;20059;-81
2020/12/15 11:46:11;;;;;;;17.30;10.02;;;8.00;99.90;;;;;;5098954;28;20040;-82
2020/12/15 11:48:36;;;;;;;20.15;10.73;;;8.10;99.90;;;;;;5098723;28;20039;-82
2020/12/15 11:51:02;;;;;;;16.60;10.20;;;8.10;99.90;;;;;;5102895;28;20040;-80
2020/12/15 11:53:29;;;;;;;20.17;9.57;;;8.10;99.90;;;;;;5104666;28;20044;-81
2020/12/15 11:55:55;;;;;;;15.65;9.20;;;8.20;99.90;;;;;;5101597;28;20374;-82
2020/12/15 11:58:21;;;;;;;17.20;10.23;;;8.20;99.90;;;;;;5100434;28;20040;-82
2020/12/15 12:00:46;;;;;;;16.58;9.68;;;8.10;99.90;;;;;;5098516;28;20043;-81
2020/12/15 12:03:13;;;;;;;18.35;9.63;;;8.30;99.90;;;;;;5099381;28;20043;-82
2020/12/15 12:05:38;;;;;;;15.88;9.32;;;8.30;99.90;;;;;;5097045;28;20035;-82
2020/12/15 12:08:04;;;;;;;17.17;9.30;;;8.40;99.90;;;;;;5097730;28;20478;-82
2020/12/15 12:10:30;;;;;;;17.02;8.80;;;8.30;99.90;;;;;;5096034;28;20040;-80
2020/12/15 12:12:55;;;;;;;16.23;9.43;;;8.40;99.90;;;;;;5097779;28;20104;-81
2020/12/15 12:15:21;;;;;;;18.85;9.90;;;8.40;99.90;;;;;;5096789;28;20040;-81
2020/12/15 12:17:47;;;;;;;18.85;8.85;;;8.30;99.90;;;;;;5096033;28;20103;-82
2020/12/15 12:20:13;;;;;;;17.02;9.60;;;8.40;99.90;;;;;;5096450;28;20470;-82
2020/12/15 12:22:39;;;;;;;16.90;9.40;;;8.40;99.90;;;;;;5097409;28;20044;-80
2020/12/15 12:25:05;;;;;;;20.90;11.00;;;8.30;99.90;;;;;;5097323;28;20046;-82
2020/12/15 12:27:30;;;;;;;19.30;10.38;;;8.30;99.90;;;;;;5097014;28;20047;-82
2020/12/15 12:29:56;;;;;;;17.52;9.00;;;8.30;99.90;;;;;;5099942;28;20036;-82
2020/12/15 12:32:22;;;;;;;19.45;9.80;;;8.30;99.90;;;;;;5100851;28;20039;-81
2020/12/15 12:34:47;;;;;;;19.27;9.93;;;8.20;99.90;;;;;;5101672;28;20040;-82
2020/12/15 12:37:14;;;;;;;19.65;10.93;;;8.20;99.90;;;;;;5102508;28;20055;-82
2020/12/15 12:39:40;;;;;;;18.33;9.77;;;8.20;99.90;;;;;;5100718;28;20109;-82
2020/12/15 12:42:05;;;;;;;19.95;11.75;;;8.20;99.90;;;;;;5101192;28;20529;-80
2020/12/15 12:44:34;;;;;;;20.30;13.07;;;8.10;99.90;;;;;;5098869;28;20051;-81
2020/12/15 12:47:00;;;;;;;20.95;11.23;;;8.10;99.90;;;;;;5098459;28;20059;-81